sensor_id;sensor_type;location;lat;lon;timestamp;P1;durP1;ratioP1;P2;durP2;ratioP2
28625;SDS011;18905;42.668;23.364;2022-08-05T00:01:46;10.65;;;6.30;;
28625;SDS011;18905;42.668;23.364;2022-08-05T00:04:12;14.57;;;6.50;;
28625;SDS011;18905;42.668;23.364;2022-08-05T00:06:37;11.27;;;6.43;;
28625;SDS011;18905;42.668;23.364;2022-08-05T00:09:03;17.30;;;5.88;;
28625;SDS011;18905;42.668;23.364;2022-08-05T00:11:29;16.63;;;6.82;;
28625;SDS011;18905;42.668;23.364;2022-08-05T00:13:55;15.30;;;5.78;;
28625;SDS011;18905;42.668;23.364;2022-08-05T00:16:21;13.55;;;5.80;;
28625;SDS011;18905;42.668;23.364;2022-08-05T00:18:46;8.27;;;5.40;;
28625;SDS011;18905;42.668;23.364;2022-08-05T00:21:13;13.00;;;5.95;;
28625;SDS011;18905;42.668;23.364;2022-08-05T00:23:39;10.93;;;5.75;;
28625;SDS011;18905;42.668;23.364;2022-08-05T00:26:06;10.35;;;6.15;;
28625;SDS011;18905;42.668;23.364;2022-08-05T00:28:32;8.88;;;5.72;;
28625;SDS011;18905;42.668;23.364;2022-08-05T00:30:58;10.18;;;6.05;;
28625;SDS011;18905;42.668;23.364;2022-08-05T00:33:24;9.98;;;5.53;;
28625;SDS011;18905;42.668;23.364;2022-08-05T00:35:49;13.65;;;5.70;;
28625;SDS011;18905;42.668;23.364;2022-08-05T00:38:14;11.65;;;6.45;;
28625;SDS011;18905;42.668;23.364;2022-08-05T00:40:47;10.20;;;6.07;;
28625;SDS011;18905;42.668;23.364;2022-08-05T00:43:14;12.65;;;6.07;;
28625;SDS011;18905;42.668;23.364;2022-08-05T00:45:40;14.48;;;5.80;;
28625;SDS011;18905;42.668;23.364;2022-08-05T00:48:06;7.50;;;5.60;;
28625;SDS011;18905;42.668;23.364;2022-08-05T00:50:32;8.32;;;5.45;;
28625;SDS011;18905;42.668;23.364;2022-08-05T00:52:58;6.80;;;4.63;;
28625;SDS011;18905;42.668;23.364;2022-08-05T00:55:23;11.05;;;5.05;;
28625;SDS011;18905;42.668;23.364;2022-08-05T00:57:48;10.05;;;5.00;;
28625;SDS011;18905;42.668;23.364;2022-08-05T01:00:14;10.10;;;5.03;;
28625;SDS011;18905;42.668;23.364;2022-08-05T01:02:39;8.70;;;5.68;;
28625;SDS011;18905;42.668;23.364;2022-08-05T01:05:05;13.18;;;5.47;;
28625;SDS011;18905;42.668;23.364;2022-08-05T01:07:30;10.50;;;6.00;;
28625;SDS011;18905;42.668;23.364;2022-08-05T01:09:56;8.27;;;5.68;;
28625;SDS011;18905;42.668;23.364;2022-08-05T01:12:23;9.23;;;5.05;;
28625;SDS011;18905;42.668;23.364;2022-08-05T01:17:32;6.82;;;4.78;;
28625;SDS011;18905;42.668;23.364;2022-08-05T01:25:34;10.48;;;5.72;;
28625;SDS011;18905;42.668;23.364;2022-08-05T01:31:14;7.53;;;5.18;;
28625;SDS011;18905;42.668;23.364;2022-08-05T01:34:03;11.20;;;5.43;;
28625;SDS011;18905;42.668;23.364;2022-08-05T01:36:41;13.48;;;6.75;;
28625;SDS011;18905;42.668;23.364;2022-08-05T01:39:10;10.20;;;5.63;;
28625;SDS011;18905;42.668;23.364;2022-08-05T01:41:39;11.55;;;6.18;;
28625;SDS011;18905;42.668;23.364;2022-08-05T01:44:07;7.65;;;5.40;;
28625;SDS011;18905;42.668;23.364;2022-08-05T01:46:35;10.88;;;5.55;;
28625;SDS011;18905;42.668;23.364;2022-08-05T01:49:02;9.35;;;5.38;;
28625;SDS011;18905;42.668;23.364;2022-08-05T01:51:29;7.10;;;4.90;;
28625;SDS011;18905;42.668;23.364;2022-08-05T01:53:57;9.50;;;4.38;;
28625;SDS011;18905;42.668;23.364;2022-08-05T01:56:28;12.35;;;5.03;;
28625;SDS011;18905;42.668;23.364;2022-08-05T01:58:56;7.13;;;5.10;;
28625;SDS011;18905;42.668;23.364;2022-08-05T02:01:24;8.75;;;4.95;;
28625;SDS011;18905;42.668;23.364;2022-08-05T02:03:51;11.18;;;4.65;;
28625;SDS011;18905;42.668;23.364;2022-08-05T02:06:19;6.03;;;4.75;;
28625;SDS011;18905;42.668;23.364;2022-08-05T02:08:45;6.18;;;4.82;;
28625;SDS011;18905;42.668;23.364;2022-08-05T02:11:11;10.27;;;4.60;;
28625;SDS011;18905;42.668;23.364;2022-08-05T02:13:41;4.55;;;4.07;;
28625;SDS011;18905;42.668;23.364;2022-08-05T02:18:53;7.63;;;4.68;;
28625;SDS011;18905;42.668;23.364;2022-08-05T02:21:36;5.70;;;3.72;;
28625;SDS011;18905;42.668;23.364;2022-08-05T02:24:07;11.82;;;4.60;;
28625;SDS011;18905;42.668;23.364;2022-08-05T02:26:37;6.43;;;4.78;;
28625;SDS011;18905;42.668;23.364;2022-08-05T02:29:07;5.43;;;4.43;;
28625;SDS011;18905;42.668;23.364;2022-08-05T02:31:36;9.15;;;4.53;;
28625;SDS011;18905;42.668;23.364;2022-08-05T02:34:09;9.52;;;4.25;;
28625;SDS011;18905;42.668;23.364;2022-08-05T02:36:38;8.98;;;4.82;;
28625;SDS011;18905;42.668;23.364;2022-08-05T02:39:08;7.82;;;4.00;;
28625;SDS011;18905;42.668;23.364;2022-08-05T02:41:35;7.55;;;4.45;;
28625;SDS011;18905;42.668;23.364;2022-08-05T02:44:03;13.43;;;6.93;;
28625;SDS011;18905;42.668;23.364;2022-08-05T02:46:32;9.77;;;5.85;;
28625;SDS011;18905;42.668;23.364;2022-08-05T02:48:59;5.30;;;4.20;;
28625;SDS011;18905;42.668;23.364;2022-08-05T02:51:26;8.43;;;4.90;;
28625;SDS011;18905;42.668;23.364;2022-08-05T02:53:53;5.38;;;4.13;;
28625;SDS011;18905;42.668;23.364;2022-08-05T02:56:19;6.07;;;4.82;;
28625;SDS011;18905;42.668;23.364;2022-08-05T02:58:45;7.78;;;5.18;;
28625;SDS011;18905;42.668;23.364;2022-08-05T03:01:14;11.98;;;4.90;;
28625;SDS011;18905;42.668;23.364;2022-08-05T03:03:42;10.38;;;4.68;;
28625;SDS011;18905;42.668;23.364;2022-08-05T03:06:13;5.90;;;4.30;;
28625;SDS011;18905;42.668;23.364;2022-08-05T03:08:39;7.03;;;4.38;;
28625;SDS011;18905;42.668;23.364;2022-08-05T03:11:26;11.40;;;5.00;;
28625;SDS011;18905;42.668;23.364;2022-08-05T03:13:52;5.57;;;4.50;;
28625;SDS011;18905;42.668;23.364;2022-08-05T03:16:18;6.88;;;5.18;;
28625;SDS011;18905;42.668;23.364;2022-08-05T03:18:46;9.68;;;5.35;;
28625;SDS011;18905;42.668;23.364;2022-08-05T03:21:12;8.43;;;4.43;;
28625;SDS011;18905;42.668;23.364;2022-08-05T03:23:38;7.53;;;5.18;;
28625;SDS011;18905;42.668;23.364;2022-08-05T03:26:06;9.82;;;5.20;;
28625;SDS011;18905;42.668;23.364;2022-08-05T03:28:32;9.30;;;5.20;;
28625;SDS011;18905;42.668;23.364;2022-08-05T03:30:58;10.05;;;5.40;;
28625;SDS011;18905;42.668;23.364;2022-08-05T03:33:25;8.43;;;5.18;;
28625;SDS011;18905;42.668;23.364;2022-08-05T03:35:51;12.27;;;5.65;;
28625;SDS011;18905;42.668;23.364;2022-08-05T03:38:17;14.85;;;7.70;;
28625;SDS011;18905;42.668;23.364;2022-08-05T03:40:46;9.95;;;5.22;;
28625;SDS011;18905;42.668;23.364;2022-08-05T03:43:12;8.05;;;5.70;;
28625;SDS011;18905;42.668;23.364;2022-08-05T03:45:37;8.45;;;5.43;;
28625;SDS011;18905;42.668;23.364;2022-08-05T03:48:04;11.38;;;5.88;;
28625;SDS011;18905;42.668;23.364;2022-08-05T03:50:52;10.75;;;5.80;;
28625;SDS011;18905;42.668;23.364;2022-08-05T03:56:14;12.27;;;6.30;;
28625;SDS011;18905;42.668;23.364;2022-08-05T03:58:47;17.67;;;6.82;;
28625;SDS011;18905;42.668;23.364;2022-08-05T04:01:14;18.98;;;7.32;;
28625;SDS011;18905;42.668;23.364;2022-08-05T04:03:43;12.52;;;6.97;;
28625;SDS011;18905;42.668;23.364;2022-08-05T04:06:12;14.93;;;6.50;;
28625;SDS011;18905;42.668;23.364;2022-08-05T04:08:42;20.25;;;7.18;;
28625;SDS011;18905;42.668;23.364;2022-08-05T04:11:09;17.77;;;7.18;;
28625;SDS011;18905;42.668;23.364;2022-08-05T04:13:37;16.15;;;7.65;;
28625;SDS011;18905;42.668;23.364;2022-08-05T04:16:05;21.02;;;7.35;;
28625;SDS011;18905;42.668;23.364;2022-08-05T04:18:32;19.02;;;8.15;;
28625;SDS011;18905;42.668;23.364;2022-08-05T04:20:58;13.43;;;7.53;;
28625;SDS011;18905;42.668;23.364;2022-08-05T04:23:24;18.15;;;7.43;;
28625;SDS011;18905;42.668;23.364;2022-08-05T04:25:51;17.08;;;7.50;;
28625;SDS011;18905;42.668;23.364;2022-08-05T04:28:17;15.68;;;7.13;;
28625;SDS011;18905;42.668;23.364;2022-08-05T04:30:43;27.65;;;8.50;;
28625;SDS011;18905;42.668;23.364;2022-08-05T04:33:09;12.88;;;7.15;;
28625;SDS011;18905;42.668;23.364;2022-08-05T04:35:35;15.98;;;7.03;;
28625;SDS011;18905;42.668;23.364;2022-08-05T04:38:00;9.98;;;5.82;;
28625;SDS011;18905;42.668;23.364;2022-08-05T04:40:26;11.50;;;5.78;;
28625;SDS011;18905;42.668;23.364;2022-08-05T04:42:51;10.52;;;6.10;;
28625;SDS011;18905;42.668;23.364;2022-08-05T04:45:16;8.38;;;5.82;;
28625;SDS011;18905;42.668;23.364;2022-08-05T04:47:42;13.55;;;6.50;;
28625;SDS011;18905;42.668;23.364;2022-08-05T04:50:07;13.27;;;6.95;;
28625;SDS011;18905;42.668;23.364;2022-08-05T04:52:33;16.90;;;8.48;;
28625;SDS011;18905;42.668;23.364;2022-08-05T04:54:58;14.00;;;7.85;;
28625;SDS011;18905;42.668;23.364;2022-08-05T04:57:24;19.48;;;7.75;;
28625;SDS011;18905;42.668;23.364;2022-08-05T04:59:50;21.42;;;7.60;;
28625;SDS011;18905;42.668;23.364;2022-08-05T05:02:15;19.00;;;7.22;;
28625;SDS011;18905;42.668;23.364;2022-08-05T05:04:41;13.10;;;7.15;;
28625;SDS011;18905;42.668;23.364;2022-08-05T05:07:06;11.68;;;6.50;;
28625;SDS011;18905;42.668;23.364;2022-08-05T05:09:31;22.90;;;6.63;;
28625;SDS011;18905;42.668;23.364;2022-08-05T05:11:57;18.38;;;6.05;;
28625;SDS011;18905;42.668;23.364;2022-08-05T05:14:22;11.10;;;6.13;;
28625;SDS011;18905;42.668;23.364;2022-08-05T05:16:48;11.40;;;5.80;;
28625;SDS011;18905;42.668;23.364;2022-08-05T05:19:13;14.18;;;6.80;;
28625;SDS011;18905;42.668;23.364;2022-08-05T05:21:39;14.93;;;6.63;;
28625;SDS011;18905;42.668;23.364;2022-08-05T05:24:04;15.02;;;6.70;;
28625;SDS011;18905;42.668;23.364;2022-08-05T05:26:30;12.00;;;6.30;;
28625;SDS011;18905;42.668;23.364;2022-08-05T05:28:55;13.05;;;6.75;;
28625;SDS011;18905;42.668;23.364;2022-08-05T05:31:21;13.27;;;6.80;;
28625;SDS011;18905;42.668;23.364;2022-08-05T05:33:46;12.95;;;7.03;;
28625;SDS011;18905;42.668;23.364;2022-08-05T05:36:11;16.60;;;7.78;;
28625;SDS011;18905;42.668;23.364;2022-08-05T05:38:37;10.52;;;7.60;;
28625;SDS011;18905;42.668;23.364;2022-08-05T05:41:02;12.88;;;7.13;;
28625;SDS011;18905;42.668;23.364;2022-08-05T05:43:28;11.55;;;7.57;;
28625;SDS011;18905;42.668;23.364;2022-08-05T05:45:53;10.30;;;6.97;;
28625;SDS011;18905;42.668;23.364;2022-08-05T05:48:18;13.48;;;7.05;;
28625;SDS011;18905;42.668;23.364;2022-08-05T05:50:44;15.75;;;7.32;;
28625;SDS011;18905;42.668;23.364;2022-08-05T05:53:09;13.73;;;7.10;;
28625;SDS011;18905;42.668;23.364;2022-08-05T05:55:37;8.07;;;5.13;;
28625;SDS011;18905;42.668;23.364;2022-08-05T05:58:05;11.00;;;4.90;;
28625;SDS011;18905;42.668;23.364;2022-08-05T06:00:31;9.00;;;4.80;;
28625;SDS011;18905;42.668;23.364;2022-08-05T06:02:57;6.22;;;4.65;;
28625;SDS011;18905;42.668;23.364;2022-08-05T06:05:24;7.18;;;4.97;;
28625;SDS011;18905;42.668;23.364;2022-08-05T06:07:49;8.82;;;5.03;;
28625;SDS011;18905;42.668;23.364;2022-08-05T06:10:15;15.32;;;5.40;;
28625;SDS011;18905;42.668;23.364;2022-08-05T06:12:40;6.40;;;4.95;;
28625;SDS011;18905;42.668;23.364;2022-08-05T06:15:06;13.75;;;5.60;;
28625;SDS011;18905;42.668;23.364;2022-08-05T06:17:32;12.00;;;5.57;;
28625;SDS011;18905;42.668;23.364;2022-08-05T06:19:58;11.13;;;5.40;;
28625;SDS011;18905;42.668;23.364;2022-08-05T06:22:24;10.95;;;6.45;;
28625;SDS011;18905;42.668;23.364;2022-08-05T06:24:57;9.73;;;6.28;;
28625;SDS011;18905;42.668;23.364;2022-08-05T06:27:23;12.05;;;5.78;;
28625;SDS011;18905;42.668;23.364;2022-08-05T06:29:49;9.70;;;6.40;;
28625;SDS011;18905;42.668;23.364;2022-08-05T06:32:15;10.73;;;6.03;;
28625;SDS011;18905;42.668;23.364;2022-08-05T06:34:40;14.20;;;6.22;;
28625;SDS011;18905;42.668;23.364;2022-08-05T06:37:06;12.93;;;5.95;;
28625;SDS011;18905;42.668;23.364;2022-08-05T06:39:32;13.98;;;6.53;;
28625;SDS011;18905;42.668;23.364;2022-08-05T06:41:57;10.00;;;6.38;;
28625;SDS011;18905;42.668;23.364;2022-08-05T06:44:27;15.20;;;6.82;;
28625;SDS011;18905;42.668;23.364;2022-08-05T06:46:54;11.25;;;6.70;;
28625;SDS011;18905;42.668;23.364;2022-08-05T06:49:20;11.73;;;6.97;;
28625;SDS011;18905;42.668;23.364;2022-08-05T06:51:46;21.05;;;6.25;;
28625;SDS011;18905;42.668;23.364;2022-08-05T06:54:12;13.35;;;5.25;;
28625;SDS011;18905;42.668;23.364;2022-08-05T06:56:37;20.38;;;6.18;;
28625;SDS011;18905;42.668;23.364;2022-08-05T06:59:03;16.73;;;6.85;;
28625;SDS011;18905;42.668;23.364;2022-08-05T07:01:30;19.17;;;6.93;;
28625;SDS011;18905;42.668;23.364;2022-08-05T07:03:55;12.85;;;6.30;;
28625;SDS011;18905;42.668;23.364;2022-08-05T07:06:20;18.10;;;6.60;;
28625;SDS011;18905;42.668;23.364;2022-08-05T07:08:47;13.23;;;5.72;;
28625;SDS011;18905;42.668;23.364;2022-08-05T07:11:13;10.63;;;6.00;;
28625;SDS011;18905;42.668;23.364;2022-08-05T07:13:39;17.10;;;6.38;;
28625;SDS011;18905;42.668;23.364;2022-08-05T07:16:23;12.98;;;6.28;;
28625;SDS011;18905;42.668;23.364;2022-08-05T07:19:07;10.07;;;6.13;;
28625;SDS011;18905;42.668;23.364;2022-08-05T07:21:32;12.75;;;5.97;;
28625;SDS011;18905;42.668;23.364;2022-08-05T07:23:57;14.55;;;5.90;;
28625;SDS011;18905;42.668;23.364;2022-08-05T07:26:23;11.48;;;5.50;;
28625;SDS011;18905;42.668;23.364;2022-08-05T07:28:48;13.70;;;6.32;;
28625;SDS011;18905;42.668;23.364;2022-08-05T07:31:17;11.32;;;6.03;;
28625;SDS011;18905;42.668;23.364;2022-08-05T07:33:42;14.70;;;5.57;;
28625;SDS011;18905;42.668;23.364;2022-08-05T07:36:08;15.13;;;5.80;;
28625;SDS011;18905;42.668;23.364;2022-08-05T07:38:34;15.20;;;4.93;;
28625;SDS011;18905;42.668;23.364;2022-08-05T07:41:05;10.68;;;5.18;;
28625;SDS011;18905;42.668;23.364;2022-08-05T07:43:33;8.30;;;4.93;;
28625;SDS011;18905;42.668;23.364;2022-08-05T07:45:59;11.02;;;4.70;;
28625;SDS011;18905;42.668;23.364;2022-08-05T07:48:24;15.70;;;4.80;;
28625;SDS011;18905;42.668;23.364;2022-08-05T07:50:50;11.30;;;5.15;;
28625;SDS011;18905;42.668;23.364;2022-08-05T07:53:15;11.35;;;4.85;;
28625;SDS011;18905;42.668;23.364;2022-08-05T07:55:41;9.63;;;4.82;;
28625;SDS011;18905;42.668;23.364;2022-08-05T07:58:06;12.02;;;5.65;;
28625;SDS011;18905;42.668;23.364;2022-08-05T08:00:31;9.70;;;5.68;;
28625;SDS011;18905;42.668;23.364;2022-08-05T08:02:57;14.70;;;5.03;;
28625;SDS011;18905;42.668;23.364;2022-08-05T08:05:23;20.17;;;5.22;;
28625;SDS011;18905;42.668;23.364;2022-08-05T08:07:48;15.82;;;4.80;;
28625;SDS011;18905;42.668;23.364;2022-08-05T08:10:14;10.93;;;4.90;;
28625;SDS011;18905;42.668;23.364;2022-08-05T08:12:39;12.88;;;5.60;;
28625;SDS011;18905;42.668;23.364;2022-08-05T08:15:06;9.60;;;5.43;;
28625;SDS011;18905;42.668;23.364;2022-08-05T08:17:33;10.27;;;4.90;;
28625;SDS011;18905;42.668;23.364;2022-08-05T08:19:58;15.13;;;5.22;;
28625;SDS011;18905;42.668;23.364;2022-08-05T08:22:24;10.27;;;5.40;;
28625;SDS011;18905;42.668;23.364;2022-08-05T08:24:50;10.63;;;5.20;;
28625;SDS011;18905;42.668;23.364;2022-08-05T08:27:16;16.92;;;5.50;;
28625;SDS011;18905;42.668;23.364;2022-08-05T08:29:42;11.82;;;5.38;;
28625;SDS011;18905;42.668;23.364;2022-08-05T08:32:08;13.23;;;4.93;;
28625;SDS011;18905;42.668;23.364;2022-08-05T08:34:33;10.98;;;4.97;;
28625;SDS011;18905;42.668;23.364;2022-08-05T08:36:59;8.10;;;4.10;;
28625;SDS011;18905;42.668;23.364;2022-08-05T08:39:25;8.43;;;5.07;;
28625;SDS011;18905;42.668;23.364;2022-08-05T08:41:50;10.68;;;4.60;;
28625;SDS011;18905;42.668;23.364;2022-08-05T08:44:20;11.18;;;4.55;;
28625;SDS011;18905;42.668;23.364;2022-08-05T08:46:49;8.68;;;4.35;;
28625;SDS011;18905;42.668;23.364;2022-08-05T08:49:15;12.50;;;4.13;;
28625;SDS011;18905;42.668;23.364;2022-08-05T08:51:48;7.68;;;4.22;;
28625;SDS011;18905;42.668;23.364;2022-08-05T08:54:19;9.63;;;4.75;;
28625;SDS011;18905;42.668;23.364;2022-08-05T08:56:45;12.48;;;4.28;;
28625;SDS011;18905;42.668;23.364;2022-08-05T08:59:11;9.77;;;4.00;;
28625;SDS011;18905;42.668;23.364;2022-08-05T09:01:36;7.82;;;4.20;;
28625;SDS011;18905;42.668;23.364;2022-08-05T09:04:03;7.03;;;3.63;;
28625;SDS011;18905;42.668;23.364;2022-08-05T09:06:29;5.05;;;3.58;;
28625;SDS011;18905;42.668;23.364;2022-08-05T09:08:59;8.85;;;3.78;;
28625;SDS011;18905;42.668;23.364;2022-08-05T09:11:25;6.78;;;3.58;;
28625;SDS011;18905;42.668;23.364;2022-08-05T09:13:51;4.97;;;3.45;;
28625;SDS011;18905;42.668;23.364;2022-08-05T09:16:18;7.53;;;3.58;;
28625;SDS011;18905;42.668;23.364;2022-08-05T09:18:43;5.82;;;2.97;;
28625;SDS011;18905;42.668;23.364;2022-08-05T09:21:09;4.53;;;2.78;;
28625;SDS011;18905;42.668;23.364;2022-08-05T09:23:35;4.85;;;2.58;;
28625;SDS011;18905;42.668;23.364;2022-08-05T09:26:08;4.80;;;2.45;;
28625;SDS011;18905;42.668;23.364;2022-08-05T09:28:36;5.43;;;2.50;;
28625;SDS011;18905;42.668;23.364;2022-08-05T09:31:07;5.88;;;2.58;;
28625;SDS011;18905;42.668;23.364;2022-08-05T09:33:49;8.90;;;2.58;;
28625;SDS011;18905;42.668;23.364;2022-08-05T09:36:16;5.00;;;2.30;;
28625;SDS011;18905;42.668;23.364;2022-08-05T09:39:03;2.60;;;2.38;;
28625;SDS011;18905;42.668;23.364;2022-08-05T09:41:30;4.45;;;2.30;;
28625;SDS011;18905;42.668;23.364;2022-08-05T09:43:56;3.55;;;2.28;;
28625;SDS011;18905;42.668;23.364;2022-08-05T09:46:28;4.85;;;2.30;;
28625;SDS011;18905;42.668;23.364;2022-08-05T09:48:56;3.58;;;2.60;;
28625;SDS011;18905;42.668;23.364;2022-08-05T09:51:36;4.40;;;2.38;;
28625;SDS011;18905;42.668;23.364;2022-08-05T09:54:06;3.72;;;2.10;;
28625;SDS011;18905;42.668;23.364;2022-08-05T09:56:36;7.18;;;2.78;;
28625;SDS011;18905;42.668;23.364;2022-08-05T09:59:10;3.33;;;2.47;;
28625;SDS011;18905;42.668;23.364;2022-08-05T10:01:40;5.57;;;2.75;;
28625;SDS011;18905;42.668;23.364;2022-08-05T10:04:08;7.88;;;2.78;;
28625;SDS011;18905;42.668;23.364;2022-08-05T10:06:42;9.57;;;2.90;;
28625;SDS011;18905;42.668;23.364;2022-08-05T10:09:18;3.72;;;2.72;;
28625;SDS011;18905;42.668;23.364;2022-08-05T10:11:47;4.82;;;2.58;;
28625;SDS011;18905;42.668;23.364;2022-08-05T10:14:23;6.88;;;3.10;;
28625;SDS011;18905;42.668;23.364;2022-08-05T10:16:53;5.40;;;3.08;;
28625;SDS011;18905;42.668;23.364;2022-08-05T10:19:23;8.75;;;3.30;;
28625;SDS011;18905;42.668;23.364;2022-08-05T10:21:50;6.97;;;3.10;;
28625;SDS011;18905;42.668;23.364;2022-08-05T10:24:16;2.97;;;2.67;;
28625;SDS011;18905;42.668;23.364;2022-08-05T10:26:44;8.88;;;3.35;;
28625;SDS011;18905;42.668;23.364;2022-08-05T10:29:12;3.38;;;2.88;;
28625;SDS011;18905;42.668;23.364;2022-08-05T10:31:37;5.30;;;2.75;;
28625;SDS011;18905;42.668;23.364;2022-08-05T10:34:04;4.20;;;3.08;;
28625;SDS011;18905;42.668;23.364;2022-08-05T10:36:37;9.15;;;3.10;;
28625;SDS011;18905;42.668;23.364;2022-08-05T10:39:13;3.33;;;2.72;;
28625;SDS011;18905;42.668;23.364;2022-08-05T10:44:26;4.93;;;3.00;;
28625;SDS011;18905;42.668;23.364;2022-08-05T10:46:55;3.20;;;2.80;;
28625;SDS011;18905;42.668;23.364;2022-08-05T10:49:23;4.95;;;2.97;;
28625;SDS011;18905;42.668;23.364;2022-08-05T10:51:54;7.22;;;3.17;;
28625;SDS011;18905;42.668;23.364;2022-08-05T10:54:24;4.30;;;3.08;;
28625;SDS011;18905;42.668;23.364;2022-08-05T10:57:11;4.65;;;3.50;;
28625;SDS011;18905;42.668;23.364;2022-08-05T10:59:49;5.07;;;3.13;;
28625;SDS011;18905;42.668;23.364;2022-08-05T11:02:31;4.90;;;3.15;;
28625;SDS011;18905;42.668;23.364;2022-08-05T11:05:01;7.25;;;3.17;;
28625;SDS011;18905;42.668;23.364;2022-08-05T11:07:28;5.50;;;3.22;;
28625;SDS011;18905;42.668;23.364;2022-08-05T11:09:55;8.02;;;2.95;;
28625;SDS011;18905;42.668;23.364;2022-08-05T11:17:53;5.10;;;3.28;;
28625;SDS011;18905;42.668;23.364;2022-08-05T11:20:37;7.25;;;3.33;;
28625;SDS011;18905;42.668;23.364;2022-08-05T11:36:17;11.18;;;3.10;;
28625;SDS011;18905;42.668;23.364;2022-08-05T11:41:20;6.95;;;2.95;;
28625;SDS011;18905;42.668;23.364;2022-08-05T11:43:57;5.07;;;3.08;;
28625;SDS011;18905;42.668;23.364;2022-08-05T11:46:40;7.95;;;3.30;;
28625;SDS011;18905;42.668;23.364;2022-08-05T11:49:17;5.10;;;2.90;;
28625;SDS011;18905;42.668;23.364;2022-08-05T11:51:48;8.88;;;4.07;;
28625;SDS011;18905;42.668;23.364;2022-08-05T11:54:25;5.95;;;3.35;;
28625;SDS011;18905;42.668;23.364;2022-08-05T11:56:52;5.93;;;3.33;;
28625;SDS011;18905;42.668;23.364;2022-08-05T12:01:55;7.82;;;3.53;;
28625;SDS011;18905;42.668;23.364;2022-08-05T12:04:38;5.93;;;3.42;;
28625;SDS011;18905;42.668;23.364;2022-08-05T12:07:05;4.95;;;3.20;;
28625;SDS011;18905;42.668;23.364;2022-08-05T12:09:35;3.88;;;2.83;;
28625;SDS011;18905;42.668;23.364;2022-08-05T12:12:03;10.80;;;3.65;;
28625;SDS011;18905;42.668;23.364;2022-08-05T12:14:40;10.38;;;3.50;;
28625;SDS011;18905;42.668;23.364;2022-08-05T12:17:08;6.03;;;3.58;;
28625;SDS011;18905;42.668;23.364;2022-08-05T12:19:45;3.58;;;3.10;;
28625;SDS011;18905;42.668;23.364;2022-08-05T12:22:20;4.40;;;3.53;;
28625;SDS011;18905;42.668;23.364;2022-08-05T12:24:50;5.57;;;3.60;;
28625;SDS011;18905;42.668;23.364;2022-08-05T12:27:23;5.45;;;3.40;;
28625;SDS011;18905;42.668;23.364;2022-08-05T12:30:04;5.13;;;3.55;;
28625;SDS011;18905;42.668;23.364;2022-08-05T12:32:31;4.32;;;3.10;;
28625;SDS011;18905;42.668;23.364;2022-08-05T12:34:59;7.47;;;3.20;;
28625;SDS011;18905;42.668;23.364;2022-08-05T12:37:26;5.57;;;3.45;;
28625;SDS011;18905;42.668;23.364;2022-08-05T12:39:54;3.40;;;3.10;;
28625;SDS011;18905;42.668;23.364;2022-08-05T12:42:21;7.03;;;3.53;;
28625;SDS011;18905;42.668;23.364;2022-08-05T12:44:47;6.32;;;3.28;;
28625;SDS011;18905;42.668;23.364;2022-08-05T12:47:13;9.63;;;3.58;;
28625;SDS011;18905;42.668;23.364;2022-08-05T12:49:50;5.95;;;3.30;;
28625;SDS011;18905;42.668;23.364;2022-08-05T12:52:16;6.38;;;3.55;;
28625;SDS011;18905;42.668;23.364;2022-08-05T12:54:46;8.98;;;3.33;;
28625;SDS011;18905;42.668;23.364;2022-08-05T12:57:13;6.25;;;3.30;;
28625;SDS011;18905;42.668;23.364;2022-08-05T13:02:11;8.88;;;3.47;;
28625;SDS011;18905;42.668;23.364;2022-08-05T13:04:38;7.70;;;3.70;;
28625;SDS011;18905;42.668;23.364;2022-08-05T13:07:07;7.70;;;3.67;;
28625;SDS011;18905;42.668;23.364;2022-08-05T13:09:42;3.67;;;3.25;;
28625;SDS011;18905;42.668;23.364;2022-08-05T13:12:14;5.38;;;3.38;;
28625;SDS011;18905;42.668;23.364;2022-08-05T13:14:41;7.38;;;3.55;;
28625;SDS011;18905;42.668;23.364;2022-08-05T13:19:41;5.63;;;3.30;;
28625;SDS011;18905;42.668;23.364;2022-08-05T13:22:23;7.75;;;3.30;;
28625;SDS011;18905;42.668;23.364;2022-08-05T13:24:49;4.25;;;3.20;;
28625;SDS011;18905;42.668;23.364;2022-08-05T13:27:25;8.27;;;3.30;;
28625;SDS011;18905;42.668;23.364;2022-08-05T13:29:50;4.43;;;3.58;;
28625;SDS011;18905;42.668;23.364;2022-08-05T13:32:15;9.27;;;3.35;;
28625;SDS011;18905;42.668;23.364;2022-08-05T13:34:41;5.63;;;3.33;;
28625;SDS011;18905;42.668;23.364;2022-08-05T13:37:07;4.20;;;3.22;;
28625;SDS011;18905;42.668;23.364;2022-08-05T13:39:32;3.63;;;2.97;;
28625;SDS011;18905;42.668;23.364;2022-08-05T13:42:00;4.05;;;2.80;;
28625;SDS011;18905;42.668;23.364;2022-08-05T13:44:25;2.88;;;2.58;;
28625;SDS011;18905;42.668;23.364;2022-08-05T13:46:51;3.08;;;2.83;;
28625;SDS011;18905;42.668;23.364;2022-08-05T13:49:17;3.63;;;2.92;;
28625;SDS011;18905;42.668;23.364;2022-08-05T13:51:42;3.60;;;2.88;;
28625;SDS011;18905;42.668;23.364;2022-08-05T13:54:08;3.58;;;2.70;;
28625;SDS011;18905;42.668;23.364;2022-08-05T13:56:36;4.30;;;2.60;;
28625;SDS011;18905;42.668;23.364;2022-08-05T13:59:05;6.78;;;2.70;;
28625;SDS011;18905;42.668;23.364;2022-08-05T14:01:30;6.18;;;3.03;;
28625;SDS011;18905;42.668;23.364;2022-08-05T14:03:58;2.72;;;2.50;;
28625;SDS011;18905;42.668;23.364;2022-08-05T14:06:42;7.10;;;2.97;;
28625;SDS011;18905;42.668;23.364;2022-08-05T14:09:07;5.53;;;2.50;;
28625;SDS011;18905;42.668;23.364;2022-08-05T14:11:33;4.22;;;2.45;;
28625;SDS011;18905;42.668;23.364;2022-08-05T14:14:03;3.40;;;2.50;;
28625;SDS011;18905;42.668;23.364;2022-08-05T14:16:30;5.75;;;2.70;;
28625;SDS011;18905;42.668;23.364;2022-08-05T14:19:00;4.47;;;2.78;;
28625;SDS011;18905;42.668;23.364;2022-08-05T14:21:26;6.60;;;2.40;;
28625;SDS011;18905;42.668;23.364;2022-08-05T14:23:51;3.83;;;2.33;;
28625;SDS011;18905;42.668;23.364;2022-08-05T14:26:18;2.70;;;2.50;;
28625;SDS011;18905;42.668;23.364;2022-08-05T14:28:43;4.93;;;2.75;;
28625;SDS011;18905;42.668;23.364;2022-08-05T14:31:09;4.55;;;2.78;;
28625;SDS011;18905;42.668;23.364;2022-08-05T14:33:35;5.15;;;2.60;;
28625;SDS011;18905;42.668;23.364;2022-08-05T14:36:00;3.45;;;2.67;;
28625;SDS011;18905;42.668;23.364;2022-08-05T14:38:26;3.35;;;2.50;;
28625;SDS011;18905;42.668;23.364;2022-08-05T14:40:52;6.63;;;2.63;;
28625;SDS011;18905;42.668;23.364;2022-08-05T14:43:19;2.83;;;2.55;;
28625;SDS011;18905;42.668;23.364;2022-08-05T14:45:46;4.63;;;2.63;;
28625;SDS011;18905;42.668;23.364;2022-08-05T14:48:13;7.70;;;2.50;;
28625;SDS011;18905;42.668;23.364;2022-08-05T14:50:39;2.85;;;2.33;;
28625;SDS011;18905;42.668;23.364;2022-08-05T14:53:04;3.65;;;2.53;;
28625;SDS011;18905;42.668;23.364;2022-08-05T14:55:31;2.72;;;2.08;;
28625;SDS011;18905;42.668;23.364;2022-08-05T14:57:56;2.75;;;2.55;;
28625;SDS011;18905;42.668;23.364;2022-08-05T15:00:22;4.72;;;2.65;;
28625;SDS011;18905;42.668;23.364;2022-08-05T15:02:49;3.83;;;2.80;;
28625;SDS011;18905;42.668;23.364;2022-08-05T15:05:15;7.30;;;2.47;;
28625;SDS011;18905;42.668;23.364;2022-08-05T15:07:40;3.00;;;2.17;;
28625;SDS011;18905;42.668;23.364;2022-08-05T15:10:06;2.80;;;2.30;;
28625;SDS011;18905;42.668;23.364;2022-08-05T15:12:31;2.90;;;2.50;;
28625;SDS011;18905;42.668;23.364;2022-08-05T15:14:59;5.28;;;2.40;;
28625;SDS011;18905;42.668;23.364;2022-08-05T15:17:25;3.13;;;2.47;;
28625;SDS011;18905;42.668;23.364;2022-08-05T15:19:52;4.82;;;2.78;;
28625;SDS011;18905;42.668;23.364;2022-08-05T15:22:18;5.60;;;2.80;;